Time;durP1;ratioP1;P1;durP2;ratioP2;P2;SDS_P1;SDS_P2;PMS_P1;PMS_P2;Temp;Humidity;BMP_temperature;BMP_pressure;BME280_temperature;BME280_humidity;BME280_pressure;Samples;Min_cycle;Max_cycle;Signal;HPM_P1;HPM_P2
2024/01/16 00:02:21;;;;;;;5.50;2.00;;;;;;;-145.18;100.00;46965.13;4992933;28;20026;-68
2024/01/16 00:04:47;;;;;;;9.87;2.70;;;;;;;-145.18;100.00;46963.19;4975664;28;20145;-70
2024/01/16 00:07:12;;;;;;;11.57;1.97;;;;;;;-145.18;100.00;46959.25;4996750;28;20037;-69
2024/01/16 00:09:38;;;;;;;7.13;1.73;;;;;;;-145.18;100.00;46961.22;4992016;28;20467;-69
2024/01/16 00:12:06;;;;;;;8.77;2.50;;;;;;;-145.18;100.00;46965.13;4991690;28;20026;-69
2024/01/16 00:14:36;;;;;;;9.68;2.45;;;;;;;-145.18;100.00;46967.09;4991358;28;20499;-68
2024/01/16 00:17:01;;;;;;;8.07;2.25;;;;;;;-145.18;100.00;46963.19;4992631;28;20113;-69
2024/01/16 00:19:27;;;;;;;16.20;2.97;;;;;;;-145.18;100.00;46965.13;4990932;28;20157;-69
2024/01/16 00:21:52;;;;;;;13.33;2.17;;;;;;;-145.18;100.00;46965.13;4992151;28;20026;-68
2024/01/16 00:24:18;;;;;;;7.90;2.50;;;;;;;-145.18;100.00;46969.03;4991959;28;20026;-69
2024/01/16 00:26:43;;;;;;;7.43;2.23;;;;;;;-145.18;100.00;46967.09;4989161;28;20030;-69
2024/01/16 00:29:12;;;;;;;11.43;2.23;;;;;;;-145.18;100.00;46969.03;4992102;28;20407;-68
2024/01/16 00:31:38;;;;;;;6.93;1.95;;;;;;;-145.18;100.00;46965.13;4991927;28;20018;-68
2024/01/16 00:34:04;;;;;;;10.00;2.38;;;;;;;-145.18;100.00;46967.09;4991139;28;20113;-68
2024/01/16 00:36:30;;;;;;;16.33;1.60;;;;;;;-145.18;100.00;46967.09;4985131;28;20121;-68
2024/01/16 00:38:55;;;;;;;5.55;1.85;;;;;;;-145.18;100.00;46965.13;4989301;28;20038;-68
2024/01/16 00:41:21;;;;;;;18.93;2.27;;;;;;;-145.18;100.00;46969.03;4974200;28;20034;-69
2024/01/16 00:43:46;;;;;;;11.33;2.00;;;;;;;-145.18;100.00;46971.00;4992084;28;20030;-68
2024/01/16 00:46:12;;;;;;;8.20;1.57;;;;;;;-145.18;100.00;46969.03;4992825;28;20053;-68
2024/01/16 00:48:37;;;;;;;7.70;1.43;;;;;;;-145.18;100.00;46969.03;4991914;28;20042;-69
2024/01/16 00:51:03;;;;;;;9.60;1.80;;;;;;;-145.18;100.00;46965.13;4992203;28;20061;-68
2024/01/16 00:53:28;;;;;;;11.13;1.77;;;;;;;-145.18;100.00;46967.09;4974134;28;20031;-68
2024/01/16 00:55:56;;;;;;;7.70;1.10;;;;;;;-145.18;100.00;46965.13;4992463;28;20133;-71
2024/01/16 00:58:22;;;;;;;12.77;2.22;;;;;;;-145.18;100.00;46969.03;4991144;28;20414;-68
2024/01/16 01:00:48;;;;;;;4.47;1.43;;;;;;;-145.18;100.00;46969.03;4992553;28;20061;-68
2024/01/16 01:03:14;;;;;;;15.83;2.00;;;;;;;-145.18;100.00;46967.09;4992332;28;20260;-68
2024/01/16 01:05:39;;;;;;;5.33;1.00;;;;;;;-145.18;100.00;46969.03;4975185;28;20037;-68
2024/01/16 01:08:05;;;;;;;7.70;1.40;;;;;;;-145.18;100.00;46963.19;4991696;28;20026;-68
2024/01/16 01:10:30;;;;;;;13.00;1.30;;;;;;;-145.18;100.00;46963.19;4991279;28;20763;-68
2024/01/16 01:12:56;;;;;;;13.70;1.50;;;;;;;-145.18;100.00;46967.09;4973590;28;20038;-68
2024/01/16 01:15:22;;;;;;;6.97;1.10;;;;;;;-145.18;100.00;46967.09;4991311;28;20031;-68
2024/01/16 01:17:50;;;;;;;12.50;1.47;;;;;;;-145.18;100.00;46965.13;4991555;28;20029;-68
2024/01/16 01:20:17;;;;;;;9.18;1.48;;;;;;;-145.18;100.00;46969.03;4993728;28;20379;-68
2024/01/16 01:22:44;;;;;;;11.68;1.48;;;;;;;-145.18;100.00;46969.03;4995935;28;20030;-68
2024/01/16 01:25:10;;;;;;;11.15;1.67;;;;;;;-145.18;100.00;46963.19;4995777;28;20033;-68
2024/01/16 01:27:36;;;;;;;3.30;1.40;;;;;;;-145.18;100.00;46965.13;4994629;28;20050;-68
2024/01/16 01:30:01;;;;;;;12.23;2.03;;;;;;;-145.18;100.00;46965.13;4995668;28;20038;-68
2024/01/16 01:32:26;;;;;;;9.27;1.30;;;;;;;-145.18;100.00;46965.13;4995171;28;20032;-69
2024/01/16 01:34:52;;;;;;;13.47;1.20;;;;;;;-145.18;100.00;46969.03;4994853;28;20038;-68
2024/01/16 01:37:17;;;;;;;7.87;1.30;;;;;;;-145.18;100.00;46967.09;4994830;28;20052;-69
2024/01/16 01:39:43;;;;;;;10.20;1.37;;;;;;;-145.18;100.00;46963.19;4995781;28;20046;-69
2024/01/16 01:42:08;;;;;;;11.10;1.07;;;;;;;-145.18;100.00;46967.09;4995178;28;20398;-68
2024/01/16 01:44:33;;;;;;;8.67;1.47;;;;;;;-145.18;100.00;46969.03;4991496;28;20026;-69
2024/01/16 01:46:59;;;;;;;7.50;1.00;;;;;;;-145.18;100.00;46965.13;4995177;28;20032;-68
2024/01/16 01:49:26;;;;;;;11.67;2.00;;;;;;;-145.18;100.00;46965.13;4977811;28;20065;-68
2024/01/16 01:51:51;;;;;;;8.20;0.95;;;;;;;-145.18;100.00;46961.22;4994389;28;20030;-69
2024/01/16 01:54:19;;;;;;;7.17;1.17;;;;;;;-145.18;100.00;46963.19;4994521;28;20049;-69
2024/01/16 01:56:46;;;;;;;6.85;1.20;;;;;;;-145.18;100.00;46963.19;4994023;28;20664;-68
2024/01/16 01:59:13;;;;;;;10.07;1.58;;;;;;;-145.18;100.00;46969.03;4994448;28;20822;-69
2024/01/16 02:01:40;;;;;;;6.85;0.98;;;;;;;-145.18;100.00;46961.22;5021020;23;20050;-81
2024/01/16 02:04:06;;;;;;;10.15;0.80;;;;;;;-145.18;100.00;46967.09;5017297;28;20033;-82
2024/01/16 02:06:32;;;;;;;6.65;1.20;;;;;;;-145.18;100.00;46963.19;5016966;28;20413;-86
2024/01/16 02:08:58;;;;;;;4.18;0.75;;;;;;;-145.18;100.00;46967.09;5017168;28;20533;-85
2024/01/16 02:11:25;;;;;;;10.50;1.52;;;;;;;-145.18;100.00;46963.19;5017360;28;20054;-85
2024/01/16 02:13:50;;;;;;;10.15;1.05;;;;;;;-145.18;100.00;46969.03;5017110;28;20120;-84
2024/01/16 02:16:20;;;;;;;10.67;1.30;;;;;;;-145.18;100.00;46969.03;5016919;28;20117;-84
2024/01/16 02:18:46;;;;;;;8.23;0.70;;;;;;;-145.18;100.00;46967.09;5015445;28;20026;-85
2024/01/16 02:21:15;;;;;;;4.57;1.05;;;;;;;-145.18;100.00;46969.03;5031884;28;20486;-84
2024/01/16 02:23:41;;;;;;;3.85;0.73;;;;;;;-145.18;100.00;46967.09;5016650;28;20048;-83
2024/01/16 02:26:07;;;;;;;3.00;0.50;;;;;;;-145.18;100.00;46961.22;5016043;28;20030;-84
2024/01/16 02:28:32;;;;;;;9.83;0.90;;;;;;;-145.18;100.00;46961.22;5016535;28;20036;-85
2024/01/16 02:30:57;;;;;;;5.93;1.73;;;;;;;-145.18;100.00;46965.13;5015942;28;20441;-84
2024/01/16 02:33:23;;;;;;;6.37;0.93;;;;;;;-145.18;100.00;46965.13;5015545;28;20034;-84
2024/01/16 02:35:48;;;;;;;7.00;0.80;;;;;;;-145.18;100.00;46969.03;5016059;28;20032;-84
2024/01/16 02:38:14;;;;;;;6.63;0.63;;;;;;;-145.18;100.00;46961.22;5016268;28;20429;-84
2024/01/16 02:40:40;;;;;;;4.73;0.60;;;;;;;-145.18;100.00;46963.19;5016254;28;20052;-84
2024/01/16 02:43:06;;;;;;;7.20;1.10;;;;;;;-145.18;100.00;46963.19;5015936;28;20108;-84
2024/01/16 02:45:32;;;;;;;11.40;0.93;;;;;;;-145.18;100.00;46961.22;5031624;28;20068;-84
2024/01/16 02:47:57;;;;;;;7.03;0.90;;;;;;;-145.18;100.00;46961.22;5016044;28;20026;-83
2024/01/16 02:50:23;;;;;;;2.77;0.60;;;;;;;-145.18;100.00;46965.13;5016096;28;20084;-84
2024/01/16 02:52:48;;;;;;;7.03;0.87;;;;;;;-145.18;100.00;46965.13;5015763;28;20418;-83
2024/01/16 02:55:14;;;;;;;6.33;1.00;;;;;;;-145.18;100.00;46961.22;5015987;28;20085;-83
2024/01/16 02:57:39;;;;;;;10.93;1.20;;;;;;;-145.18;100.00;46961.22;5016142;28;20033;-83
2024/01/16 03:00:07;;;;;;;11.33;1.30;;;;;;;-145.18;100.00;46965.13;5015310;28;20030;-84
2024/01/16 03:02:33;;;;;;;6.78;1.30;;;;;;;-145.18;100.00;46965.13;5016120;28;20049;-84
2024/01/16 03:04:58;;;;;;;2.83;0.80;;;;;;;-145.18;100.00;46965.13;5016300;28;20041;-84
2024/01/16 03:07:24;;;;;;;4.77;1.40;;;;;;;-145.18;100.00;46959.25;5015755;28;20544;-83
2024/01/16 03:09:50;;;;;;;8.13;0.97;;;;;;;-145.18;100.00;46961.22;5015726;28;20454;-83
2024/01/16 03:12:15;;;;;;;5.37;0.67;;;;;;;-145.18;100.00;46963.19;5015355;28;20148;-83
2024/01/16 03:14:40;;;;;;;11.10;1.47;;;;;;;-145.18;100.00;46961.22;5015057;28;20041;-83
2024/01/16 03:17:06;;;;;;;6.27;1.23;;;;;;;-145.18;100.00;46957.31;5014976;28;20088;-83
2024/01/16 03:19:32;;;;;;;10.07;1.02;;;;;;;-145.18;100.00;46963.19;5015155;28;20030;-83
2024/01/16 03:21:58;;;;;;;5.67;1.00;;;;;;;-145.18;100.00;46965.13;5015200;28;20036;-83
2024/01/16 03:24:23;;;;;;;7.60;1.07;;;;;;;-145.18;100.00;46965.13;5015532;28;20034;-83
2024/01/16 03:26:49;;;;;;;3.97;1.13;;;;;;;-145.18;100.00;46961.22;5015201;28;20120;-82
2024/01/16 03:29:15;;;;;;;9.33;1.20;;;;;;;-145.18;100.00;46957.31;5030591;28;20112;-82
2024/01/16 03:31:40;;;;;;;3.53;0.70;;;;;;;-145.18;100.00;46963.19;5014787;28;20033;-82
2024/01/16 03:34:08;;;;;;;2.90;0.73;;;;;;;-145.18;100.00;46959.25;5015033;28;20030;-82
2024/01/16 03:36:34;;;;;;;9.85;1.05;;;;;;;-145.18;100.00;46965.13;5014191;28;20026;-83
2024/01/16 03:38:59;;;;;;;5.73;0.83;;;;;;;-145.18;100.00;46967.09;5015054;28;20083;-82
2024/01/16 03:41:24;;;;;;;4.00;0.80;;;;;;;-145.18;100.00;46963.19;5014895;28;20474;-82
2024/01/16 03:43:50;;;;;;;2.57;0.90;;;;;;;-145.18;100.00;46965.13;5014815;28;20077;-82
2024/01/16 03:46:15;;;;;;;7.03;1.50;;;;;;;-145.18;100.00;46961.22;5014833;28;20034;-82
2024/01/16 03:48:40;;;;;;;8.47;1.03;;;;;;;-145.18;100.00;46961.22;5015087;28;20026;-83
2024/01/16 03:51:06;;;;;;;7.03;1.13;;;;;;;-145.18;100.00;46961.22;5014459;28;20069;-83
2024/01/16 03:53:32;;;;;;;13.10;1.47;;;;;;;-145.18;100.00;46961.22;5014879;28;20053;-82
2024/01/16 03:55:58;;;;;;;3.10;1.10;;;;;;;-145.18;100.00;46961.22;5014835;28;20049;-82
2024/01/16 03:58:23;;;;;;;5.40;1.20;;;;;;;-145.18;100.00;46963.19;5030027;28;20041;-82
2024/01/16 04:00:50;;;;;;;10.60;1.50;;;;;;;-145.18;100.00;46961.22;5030058;28;20038;-82
2024/01/16 04:03:16;;;;;;;6.18;1.63;;;;;;;-145.18;100.00;46963.19;5015038;28;20046;-82
2024/01/16 04:05:41;;;;;;;11.83;1.10;;;;;;;-145.18;100.00;46963.19;5014413;28;20044;-82
2024/01/16 04:08:07;;;;;;;5.23;1.27;;;;;;;-145.18;100.00;46967.09;5014316;28;20105;-81
2024/01/16 04:10:32;;;;;;;3.60;1.30;;;;;;;-145.18;100.00;46969.03;5014699;28;20037;-82
2024/01/16 04:13:01;;;;;;;9.30;1.50;;;;;;;-145.18;100.00;46963.19;5014013;28;20030;-82
2024/01/16 04:15:26;;;;;;;3.30;1.30;;;;;;;-145.18;100.00;46967.09;5014862;28;20088;-82
2024/01/16 04:17:52;;;;;;;6.93;1.80;;;;;;;-145.18;100.00;46961.22;5014683;28;20042;-83
2024/01/16 04:20:17;;;;;;;6.77;1.30;;;;;;;-145.18;100.00;46963.19;5014583;28;20093;-83
2024/01/16 04:22:42;;;;;;;10.17;1.93;;;;;;;-145.18;100.00;46961.22;5014090;28;20104;-83
2024/01/16 04:25:08;;;;;;;6.97;1.23;;;;;;;-145.18;100.00;46957.31;5014524;28;20030;-84
2024/01/16 04:27:34;;;;;;;13.80;1.47;;;;;;;-145.18;100.00;46965.13;5014604;28;20061;-86
2024/01/16 04:29:59;;;;;;;13.63;1.30;;;;;;;-145.18;100.00;46965.13;5013748;28;20342;-86
2024/01/16 04:32:25;;;;;;;6.53;1.23;;;;;;;-145.18;100.00;46967.09;5014243;28;20038;-86
2024/01/16 04:34:50;;;;;;;9.97;1.77;;;;;;;-145.18;100.00;46967.09;5014497;28;20034;-87
2024/01/16 04:37:16;;;;;;;6.20;1.40;;;;;;;-145.18;100.00;46965.13;5014482;28;20045;-86
2024/01/16 04:39:42;;;;;;;9.60;1.90;;;;;;;-145.18;100.00;46965.13;5014377;28;20541;-87
2024/01/16 04:42:07;;;;;;;9.70;2.07;;;;;;;-145.18;100.00;46969.03;5013749;28;20495;-87
2024/01/16 04:44:33;;;;;;;8.67;2.07;;;;;;;-145.18;100.00;46969.03;5014458;28;20116;-87
2024/01/16 04:46:58;;;;;;;6.40;1.77;;;;;;;-145.18;100.00;46976.84;5014202;28;20044;-86
2024/01/16 04:49:23;;;;;;;13.70;1.77;;;;;;;-145.18;100.00;46965.13;5013964;28;20048;-86
2024/01/16 04:51:49;;;;;;;9.53;1.73;;;;;;;-145.18;100.00;46969.03;5014462;28;20510;-87
2024/01/16 04:54:14;;;;;;;9.27;2.07;;;;;;;-145.18;100.00;46969.03;5014033;28;20038;-87
2024/01/16 04:56:40;;;;;;;15.70;2.20;;;;;;;-145.18;100.00;46969.03;5017689;28;20030;-86
2024/01/16 04:59:05;;;;;;;12.13;1.73;;;;;;;-145.18;100.00;46971.00;5018005;28;20068;-87
2024/01/16 05:01:30;;;;;;;14.43;1.83;;;;;;;-145.18;100.00;46969.03;5017754;28;20446;-86
2024/01/16 05:03:56;;;;;;;7.77;1.57;;;;;;;-145.18;100.00;46972.94;5018384;28;20137;-87
2024/01/16 05:06:21;;;;;;;8.27;1.83;;;;;;;-145.18;100.00;46974.91;5033583;28;20049;-86
2024/01/16 05:08:47;;;;;;;11.97;2.43;;;;;;;-145.18;100.00;46972.94;5017739;28;20022;-86
2024/01/16 05:11:12;;;;;;;13.90;3.40;;;;;;;-145.18;100.00;46967.09;5017144;28;20530;-87
2024/01/16 05:13:38;;;;;;;14.00;3.50;;;;;;;-145.18;100.00;46965.13;5017225;28;20402;-85
2024/01/16 05:16:03;;;;;;;14.03;2.60;;;;;;;-145.18;100.00;46971.00;5018268;28;20041;-86
2024/01/16 05:18:29;;;;;;;8.17;3.17;;;;;;;-145.18;100.00;46967.09;5018161;28;20048;-86
2024/01/16 05:20:56;;;;;;;13.20;3.00;;;;;;;-145.18;100.00;46967.09;5017613;28;20093;-86
2024/01/16 05:23:21;;;;;;;8.90;2.90;;;;;;;-145.18;100.00;46967.09;5017800;28;20037;-86
2024/01/16 05:25:47;;;;;;;9.13;2.30;;;;;;;-145.18;100.00;46969.03;5016394;28;20268;-86
2024/01/16 05:28:12;;;;;;;10.83;2.50;;;;;;;-145.18;100.00;46971.00;5017622;28;20030;-86
2024/01/16 05:30:37;;;;;;;7.37;2.23;;;;;;;-145.18;100.00;46965.13;5017463;28;20053;-87
2024/01/16 05:33:03;;;;;;;10.57;2.87;;;;;;;-145.18;100.00;46965.13;5033313;28;20034;-86
2024/01/16 05:35:28;;;;;;;10.30;3.00;;;;;;;-145.18;100.00;46967.09;5032619;28;20520;-86
2024/01/16 05:37:55;;;;;;;14.60;3.13;;;;;;;-145.18;100.00;46967.09;5017834;28;20485;-82
2024/01/16 05:40:21;;;;;;;8.70;2.70;;;;;;;-145.18;100.00;46969.03;5017476;28;20036;-82
2024/01/16 05:42:48;;;;;;;11.77;3.60;;;;;;;-145.18;100.00;46967.09;5017310;28;20298;-82
2024/01/16 05:45:13;;;;;;;17.70;3.88;;;;;;;-145.18;100.00;46963.19;5017091;28;20291;-81
2024/01/16 05:47:39;;;;;;;19.83;5.00;;;;;;;-145.18;100.00;46967.09;5017287;28;20069;-83
2024/01/16 05:50:05;;;;;;;11.70;3.50;;;;;;;-145.18;100.00;46967.09;5016807;28;20508;-83
2024/01/16 05:52:30;;;;;;;19.13;3.33;;;;;;;-145.18;100.00;46969.03;5031854;28;20041;-83
2024/01/16 05:54:57;;;;;;;15.57;3.40;;;;;;;-145.18;100.00;46967.09;5017567;28;20283;-83
2024/01/16 05:57:23;;;;;;;21.02;3.95;;;;;;;-145.18;100.00;46969.03;5017110;28;20153;-82
2024/01/16 05:59:48;;;;;;;18.67;3.43;;;;;;;-145.18;100.00;46969.03;5016852;28;20125;-82
2024/01/16 06:02:14;;;;;;;17.67;3.47;;;;;;;-145.18;100.00;46969.03;5032225;28;20054;-82
2024/01/16 06:04:39;;;;;;;17.27;2.80;;;;;;;-145.18;100.00;46967.09;5016996;28;20363;-82
2024/01/16 06:07:07;;;;;;;11.67;2.43;;;;;;;-145.18;100.00;46967.09;5017070;28;20076;-82
2024/01/16 06:09:32;;;;;;;11.57;3.70;;;;;;;-145.18;100.00;46965.13;5032378;28;20374;-82
2024/01/16 06:11:58;;;;;;;9.20;2.93;;;;;;;-145.18;100.00;46969.03;5015476;28;20271;-81
2024/01/16 06:14:23;;;;;;;17.23;3.13;;;;;;;-145.18;100.00;46965.13;5032470;28;20049;-81
2024/01/16 06:16:49;;;;;;;23.37;3.20;;;;;;;-145.18;100.00;46961.22;5016711;28;20117;-82
2024/01/16 06:19:15;;;;;;;10.97;3.33;;;;;;;-145.18;100.00;46965.13;5017127;28;20093;-80
2024/01/16 06:21:41;;;;;;;21.37;3.87;;;;;;;-145.18;100.00;46967.09;5016069;28;20142;-80
2024/01/16 06:24:07;;;;;;;14.70;3.10;;;;;;;-145.18;100.00;46963.19;5016007;28;20779;-80
2024/01/16 06:26:33;;;;;;;12.33;3.90;;;;;;;-145.18;100.00;46965.13;5031955;28;20061;-79
2024/01/16 06:28:58;;;;;;;13.07;3.50;;;;;;;-145.18;100.00;46965.13;5031764;28;20044;-81
2024/01/16 06:31:25;;;;;;;18.97;3.70;;;;;;;-145.18;100.00;46963.19;5016193;28;20061;-81
2024/01/16 06:33:51;;;;;;;16.88;3.72;;;;;;;-145.18;100.00;46957.31;5016353;28;20116;-80
2024/01/16 06:36:17;;;;;;;27.80;3.57;;;;;;;-145.18;100.00;46961.22;5031654;28;20149;-80
2024/01/16 06:38:42;;;;;;;20.27;4.00;;;;;;;-145.18;100.00;46955.34;5016579;28;20133;-84
2024/01/16 06:41:07;;;;;;;11.23;3.80;;;;;;;-145.18;100.00;46955.34;5016275;28;20033;-84
2024/01/16 06:43:33;;;;;;;17.07;4.30;;;;;;;-145.18;100.00;46955.34;5016724;28;20490;-84
2024/01/16 06:45:59;;;;;;;12.30;3.80;;;;;;;-145.18;100.00;46949.50;5016206;28;20360;-80
2024/01/16 06:48:24;;;;;;;15.37;3.53;;;;;;;-145.18;100.00;46953.41;5015147;28;20045;-79
2024/01/16 06:50:50;;;;;;;17.33;4.23;;;;;;;-145.18;100.00;46947.53;5015917;28;20034;-80
2024/01/16 06:53:15;;;;;;;17.80;4.40;;;;;;;-145.18;100.00;46949.50;5015415;28;20089;-83
2024/01/16 06:55:41;;;;;;;16.57;4.23;;;;;;;-145.18;100.00;46943.63;5031389;28;20033;-79
2024/01/16 06:58:06;;;;;;;20.93;4.17;;;;;;;-145.18;100.00;46947.53;5015430;28;20104;-82
2024/01/16 07:00:32;;;;;;;13.60;3.80;;;;;;;-145.18;100.00;46945.59;5031781;28;20072;-84
2024/01/16 07:02:57;;;;;;;14.67;3.20;;;;;;;-145.18;100.00;46941.69;5031410;28;20081;-82
2024/01/16 07:05:23;;;;;;;10.40;3.20;;;;;;;-145.18;100.00;46939.72;5015822;28;20117;-80
2024/01/16 07:07:48;;;;;;;13.00;3.43;;;;;;;-145.18;100.00;46937.78;5015730;28;20478;-83
2024/01/16 07:10:18;;;;;;;9.80;3.03;;;;;;;-145.18;100.00;46933.88;5015612;28;20026;-85
2024/01/16 07:12:44;;;;;;;8.97;3.10;;;;;;;-145.18;100.00;46937.78;5015804;28;20041;-82
2024/01/16 07:15:10;;;;;;;11.73;3.40;;;;;;;-145.18;100.00;46931.91;5015739;28;20374;-82
2024/01/16 07:17:35;;;;;;;9.70;3.00;;;;;;;-145.18;100.00;46931.91;5014734;28;20475;-82
2024/01/16 07:20:01;;;;;;;8.83;2.90;;;;;;;-145.18;100.00;46929.97;5015663;28;20123;-82
2024/01/16 07:22:27;;;;;;;14.32;3.97;;;;;;;-145.18;100.00;46920.19;5015650;28;20030;-82
2024/01/16 07:24:52;;;;;;;17.97;3.30;;;;;;;-145.18;100.00;46920.19;5015133;28;20049;-82
2024/01/16 07:27:18;;;;;;;9.97;3.20;;;;;;;-145.18;100.00;46924.09;5014967;28;20063;-82
2024/01/16 07:29:43;;;;;;;14.73;3.70;;;;;;;-145.18;100.00;46920.19;5015093;28;20034;-82
2024/01/16 07:32:10;;;;;;;20.90;4.47;;;;;;;-145.18;100.00;46914.34;5015333;28;20034;-82
2024/01/16 07:34:36;;;;;;;10.82;4.22;;;;;;;-145.18;100.00;46920.19;5015368;28;20030;-82
2024/01/16 07:37:02;;;;;;;19.60;4.77;;;;;;;-145.18;100.00;46918.25;5014817;28;20032;-82
2024/01/16 07:39:27;;;;;;;12.93;4.70;;;;;;;-145.18;100.00;46910.44;5014556;28;20026;-82
2024/01/16 07:41:52;;;;;;;12.10;4.70;;;;;;;-145.18;100.00;46918.25;5030519;28;20528;-83
2024/01/16 07:44:18;;;;;;;19.80;4.43;;;;;;;-145.18;100.00;46912.38;5014947;28;20440;-82
2024/01/16 07:46:43;;;;;;;11.97;4.20;;;;;;;-145.18;100.00;46914.34;5014348;28;20037;-83
2024/01/16 07:49:09;;;;;;;13.30;4.07;;;;;;;-145.18;100.00;46914.34;5014971;28;20440;-83
2024/01/16 07:51:35;;;;;;;12.57;4.43;;;;;;;-145.18;100.00;46910.44;5014007;28;20434;-84
2024/01/16 07:54:08;;;;;;;16.33;4.17;;;;;;;-145.18;100.00;46908.47;5014501;28;20287;-88
2024/01/16 07:56:35;;;;;;;15.93;4.05;;;;;;;-145.18;100.00;46906.53;5014617;28;20030;-84
2024/01/16 07:59:01;;;;;;;15.45;4.95;;;;;;;-145.18;100.00;46908.47;5014176;28;20533;-84
2024/01/16 08:01:29;;;;;;;15.27;4.60;;;;;;;-145.18;100.00;46904.56;5014292;28;20089;-85
2024/01/16 08:03:55;;;;;;;11.57;3.90;;;;;;;-145.18;100.00;46902.63;5014550;28;20034;-87
2024/01/16 08:06:21;;;;;;;15.23;4.25;;;;;;;-145.18;100.00;46902.63;5014919;28;20068;-87
2024/01/16 08:08:48;;;;;;;14.80;4.77;;;;;;;-145.18;100.00;46902.63;5029587;28;20133;-86
2024/01/16 08:11:14;;;;;;;8.70;3.72;;;;;;;-145.18;100.00;46900.66;5015115;28;20293;-89
2024/01/16 08:13:39;;;;;;;10.20;3.60;;;;;;;-145.18;100.00;46894.81;5029330;28;20056;-87
2024/01/16 08:16:05;;;;;;;16.10;5.20;;;;;;;-145.18;100.00;46890.91;5014934;28;20036;-91
2024/01/16 08:18:31;;;;;;;13.23;4.93;;;;;;;-145.18;100.00;46892.84;5030376;28;20038;-77
2024/01/16 08:20:57;;;;;;;20.88;4.22;;;;;;;-145.18;100.00;46888.94;5014491;28;20108;-76
2024/01/16 08:23:22;;;;;;;9.52;4.05;;;;;;;-145.18;100.00;46887.00;5014518;28;20045;-77
2024/01/16 08:25:48;;;;;;;17.20;4.00;;;;;;;-145.18;100.00;46885.03;5014171;28;20034;-77
2024/01/16 08:28:14;;;;;;;10.17;3.37;;;;;;;-145.18;100.00;46887.00;5014643;28;20026;-77
2024/01/16 08:30:40;;;;;;;15.70;4.18;;;;;;;-145.18;100.00;46888.94;5013303;28;20600;-76
2024/01/16 08:33:05;;;;;;;15.63;3.60;;;;;;;-145.18;100.00;46885.03;5014784;28;20042;-78
2024/01/16 08:35:30;;;;;;;16.93;4.20;;;;;;;-145.18;100.00;46887.00;5014376;28;20071;-77
2024/01/16 08:37:56;;;;;;;16.57;4.50;;;;;;;-145.18;100.00;46885.03;5013876;28;20045;-77
2024/01/16 08:40:21;;;;;;;15.87;4.33;;;;;;;-145.18;100.00;46881.13;5029529;28;20090;-76
2024/01/16 08:42:51;;;;;;;10.80;3.77;;;;;;;-145.18;100.00;46885.03;5014057;28;20486;-76
2024/01/16 08:45:17;;;;;;;8.10;3.28;;;;;;;-145.18;100.00;46881.13;5014234;28;20041;-76
2024/01/16 08:47:42;;;;;;;10.93;4.53;;;;;;;-145.18;100.00;46883.09;5014744;28;20045;-77
2024/01/16 08:50:09;;;;;;;11.00;4.20;;;;;;;-145.18;100.00;46879.19;5012993;28;20129;-76
2024/01/16 08:52:35;;;;;;;13.73;4.28;;;;;;;-145.18;100.00;46875.28;5013865;28;20060;-77
2024/01/16 08:55:00;;;;;;;13.80;4.15;;;;;;;-145.18;100.00;46879.19;5013462;28;20042;-77
2024/01/16 08:57:26;;;;;;;14.50;4.03;;;;;;;-145.18;100.00;46879.19;5014484;28;20048;-77
2024/01/16 08:59:52;;;;;;;13.83;3.77;;;;;;;-145.18;100.00;46879.19;5014155;28;20125;-76
2024/01/16 09:02:18;;;;;;;9.35;4.63;;;;;;;-145.18;100.00;46881.13;5013761;28;20057;-76
2024/01/16 09:04:43;;;;;;;12.93;3.73;;;;;;;-145.18;100.00;46875.28;5014321;28;20108;-77
2024/01/16 09:07:08;;;;;;;9.40;3.60;;;;;;;-145.18;100.00;46873.31;5013838;28;20069;-76
2024/01/16 09:09:34;;;;;;;12.03;4.43;;;;;;;-145.18;100.00;46873.31;5013745;28;20415;-77
2024/01/16 09:11:59;;;;;;;8.50;4.20;;;;;;;-145.18;100.00;46869.41;5013785;28;20037;-76
2024/01/16 09:14:25;;;;;;;12.20;2.63;;;;;;;-145.18;100.00;46867.44;5013997;28;20049;-77
2024/01/16 09:16:50;;;;;;;7.30;3.50;;;;;;;-145.18;100.00;46863.53;5014486;28;20034;-76
2024/01/16 09:19:16;;;;;;;11.83;2.90;;;;;;;-145.18;100.00;46863.53;5014159;28;20038;-78
2024/01/16 09:21:41;;;;;;;12.07;3.17;;;;;;;-145.18;100.00;46865.50;5014320;28;20095;-77
2024/01/16 09:24:07;;;;;;;6.73;2.83;;;;;;;-145.18;100.00;46859.63;5014164;28;20062;-77
2024/01/16 09:26:32;;;;;;;5.90;2.83;;;;;;;-145.18;100.00;46861.59;5013239;28;20026;-77
2024/01/16 09:28:58;;;;;;;9.40;3.00;;;;;;;-145.18;100.00;46859.63;5013198;28;20263;-77
2024/01/16 09:31:24;;;;;;;12.20;2.87;;;;;;;-145.18;100.00;46855.72;5014395;28;20069;-77
2024/01/16 09:33:50;;;;;;;10.18;2.78;;;;;;;-145.18;100.00;46847.91;5029233;28;20034;-77
2024/01/16 09:36:15;;;;;;;9.20;3.07;;;;;;;-145.18;100.00;46853.78;5013518;28;20030;-76
2024/01/16 09:38:41;;;;;;;6.23;2.37;;;;;;;-145.18;100.00;46859.63;5013975;28;20117;-87
2024/01/16 09:41:07;;;;;;;5.83;2.10;;;;;;;-145.18;100.00;46853.78;5014752;28;20051;-85
2024/01/16 09:43:33;;;;;;;9.02;2.42;;;;;;;-145.18;100.00;46845.97;5017022;28;20026;-85
2024/01/16 09:46:01;;;;;;;6.43;2.30;;;;;;;-145.18;100.00;46844.00;5017531;28;20033;-85
2024/01/16 09:48:28;;;;;;;5.53;2.35;;;;;;;-145.18;100.00;46844.00;5016822;28;20243;-85
2024/01/16 09:50:54;;;;;;;5.20;2.43;;;;;;;-145.18;100.00;46844.00;5015656;28;20066;-85
2024/01/16 09:53:19;;;;;;;7.23;2.50;;;;;;;-145.18;100.00;46842.06;5016907;28;20287;-85
2024/01/16 09:55:46;;;;;;;6.07;2.10;;;;;;;-145.18;100.00;46834.25;5017135;28;20088;-86
2024/01/16 09:58:14;;;;;;;10.05;3.05;;;;;;;-145.18;100.00;46830.34;5018182;28;20488;-84
2024/01/16 10:00:43;;;;;;;10.87;2.83;;;;;;;-145.18;100.00;46826.44;5018638;28;20033;-85
2024/01/16 10:03:12;;;;;;;14.50;3.00;;;;;;;-145.18;100.00;46824.47;5018338;28;20299;-85
2024/01/16 10:05:42;;;;;;;5.10;2.38;;;;;;;-145.18;100.00;46820.56;5017079;28;20724;-85
2024/01/16 10:08:08;;;;;;;8.07;2.57;;;;;;;-145.18;100.00;46820.56;5031861;28;20467;-85
2024/01/16 10:10:34;;;;;;;12.07;2.53;;;;;;;-145.18;100.00;46816.66;5016419;28;20259;-85
2024/01/16 10:12:59;;;;;;;5.97;2.50;;;;;;;-145.18;100.00;46816.66;5016222;28;20029;-85
2024/01/16 10:15:25;;;;;;;7.67;2.60;;;;;;;-145.18;100.00;46812.75;5016338;28;20442;-86
2024/01/16 10:17:50;;;;;;;4.03;2.23;;;;;;;-145.18;100.00;46806.91;5032274;28;20379;-85
2024/01/16 10:20:18;;;;;;;7.67;3.07;;;;;;;-145.18;100.00;46808.84;5016539;28;20026;-85
2024/01/16 10:22:53;;;;;;;9.45;4.40;;;;;;;-145.18;100.00;46808.84;5017084;28;20038;-85
2024/01/16 10:25:21;;;;;;;9.60;3.23;;;;;;;-145.18;100.00;46806.91;5016283;28;20038;-85
2024/01/16 10:27:47;;;;;;;12.73;3.23;;;;;;;-145.18;100.00;46797.13;5016330;28;20109;-85
2024/01/16 10:30:13;;;;;;;9.17;4.43;;;;;;;-145.18;100.00;46803.00;5016447;28;20286;-84
2024/01/16 10:32:43;;;;;;;12.63;3.03;;;;;;;-145.18;100.00;46799.09;5016880;28;20272;-88
2024/01/16 10:35:10;;;;;;;10.37;3.63;;;;;;;-145.18;100.00;46797.13;5016326;28;20033;-88
2024/01/16 10:37:55;;;;;;;7.70;3.20;;;;;;;-145.18;100.00;46791.28;5015027;28;20616;-88
2024/01/16 10:40:29;;;;;;;9.90;3.92;;;;;;;-145.18;100.00;46789.31;5015754;28;20259;-89
2024/01/16 10:42:59;;;;;;;11.43;3.20;;;;;;;-145.18;100.00;46783.47;5015708;28;20125;-85
2024/01/16 10:45:26;;;;;;;10.23;3.80;;;;;;;-145.18;100.00;46773.69;5015499;28;20278;-85
2024/01/16 10:48:05;;;;;;;7.20;3.13;;;;;;;-145.18;100.00;46777.59;5016023;28;20271;-90
2024/01/16 10:50:32;;;;;;;8.57;3.60;;;;;;;-145.18;100.00;46771.75;5016599;28;20251;-88
2024/01/16 10:53:01;;;;;;;15.30;4.60;;;;;;;-145.18;100.00;46773.69;5014693;28;20267;-85
2024/01/16 10:55:28;;;;;;;12.00;3.20;;;;;;;-145.18;100.00;46769.78;5015908;28;20259;-86
2024/01/16 10:57:56;;;;;;;7.23;3.33;;;;;;;-145.18;100.00;46765.88;5015900;28;20270;-86
2024/01/16 11:00:22;;;;;;;7.60;3.20;;;;;;;-145.18;100.00;46765.88;5015652;28;20748;-89